createdAt,value
2018-11-28T00:00:58.614Z,96230.41
2018-11-28T00:03:29.016Z,96221.00
2018-11-28T00:05:59.337Z,96220.05
2018-11-28T00:08:29.926Z,96217.78
2018-11-28T00:11:00.557Z,96218.61
2018-11-28T00:13:30.880Z,96227.40
2018-11-28T00:16:01.210Z,96215.91
2018-11-28T00:18:31.591Z,96221.16
2018-11-28T00:21:02.082Z,96221.80
2018-11-28T00:23:32.565Z,96217.25
2018-11-28T00:26:03.026Z,96220.62
2018-11-28T00:28:33.452Z,96223.59
2018-11-28T00:31:03.964Z,96220.70
2018-11-28T00:33:34.583Z,96216.79
2018-11-28T00:36:05.101Z,96221.92
2018-11-28T00:38:36.298Z,96215.76
2018-11-28T00:41:06.855Z,96224.53
2018-11-28T00:43:37.323Z,96229.91
2018-11-28T00:46:08.194Z,96235.47
2018-11-28T00:48:38.692Z,96232.55
2018-11-28T00:51:09.136Z,96231.08
2018-11-28T00:53:39.696Z,96232.30
2018-11-28T00:56:10.008Z,96232.50
2018-11-28T00:58:40.342Z,96233.81
2018-11-28T01:01:10.846Z,96234.92
2018-11-28T01:03:41.219Z,96235.23
2018-11-28T01:06:11.601Z,96241.33
2018-11-28T01:08:42.006Z,96249.07
2018-11-28T01:11:12.510Z,96250.58
2018-11-28T01:13:42.914Z,96248.00
2018-11-28T01:16:13.403Z,96249.27
2018-11-28T01:18:46.618Z,96249.78
2018-11-28T01:21:14.862Z,96251.84
2018-11-28T01:23:45.262Z,96247.18
2018-11-28T01:26:15.632Z,96245.32
2018-11-28T01:28:46.602Z,96252.44
2018-11-28T01:31:17.054Z,96239.98
2018-11-28T01:33:47.351Z,96249.31
2018-11-28T01:36:17.769Z,96254.57
2018-11-28T01:38:48.200Z,96249.00
2018-11-28T01:41:18.609Z,96258.48
2018-11-28T01:43:49.021Z,96253.61
2018-11-28T01:46:19.402Z,96256.38
2018-11-28T01:48:49.878Z,96250.18
2018-11-28T01:51:21.190Z,96257.80
2018-11-28T01:53:51.571Z,96262.75
2018-11-28T01:56:22.041Z,96258.72
2018-11-28T01:58:52.450Z,96261.41
2018-11-28T02:01:22.875Z,96266.50
2018-11-28T02:03:53.193Z,96266.86
2018-11-28T02:06:23.622Z,96262.63
2018-11-28T02:08:54.073Z,96261.84
2018-11-28T02:11:24.650Z,96265.70
2018-11-28T02:13:54.980Z,96257.33
2018-11-28T02:16:25.301Z,96255.65
2018-11-28T02:18:55.707Z,96257.39
2018-11-28T02:21:26.200Z,96258.94
2018-11-28T02:23:56.610Z,96260.53
2018-11-28T02:26:27.101Z,96264.41
2018-11-28T02:28:57.488Z,96258.66
2018-11-28T02:31:27.794Z,96263.31
2018-11-28T02:33:58.427Z,96267.16
2018-11-28T02:36:28.741Z,96268.99
2018-11-28T02:38:59.158Z,96263.80
2018-11-28T02:41:29.634Z,96271.15
2018-11-28T02:44:00.128Z,96273.44
2018-11-28T02:46:31.901Z,96269.30
2018-11-28T02:49:02.383Z,96274.05
2018-11-28T02:51:32.914Z,96278.07
2018-11-28T02:54:03.172Z,96273.44
2018-11-28T02:56:33.478Z,96274.69
2018-11-28T02:59:04.148Z,96284.08
2018-11-28T03:01:34.430Z,96289.66
2018-11-28T03:04:04.877Z,96285.53
2018-11-28T03:06:35.186Z,96282.63
2018-11-28T03:09:07.964Z,96283.66
2018-11-28T03:11:39.247Z,96285.41
2018-11-28T03:14:09.764Z,96290.07
2018-11-28T03:16:40.129Z,96293.27
2018-11-28T03:19:10.439Z,96289.02
2018-11-28T03:21:41.805Z,96288.51
2018-11-28T03:24:12.268Z,96297.80
2018-11-28T03:26:42.585Z,96296.74
2018-11-28T03:29:12.963Z,96299.97
2018-11-28T03:31:43.284Z,96300.06
2018-11-28T03:34:13.609Z,96299.55
2018-11-28T03:36:43.996Z,96290.36
2018-11-28T03:39:15.330Z,96302.84
2018-11-28T03:41:45.918Z,96302.73
2018-11-28T03:44:17.312Z,96300.34
2018-11-28T03:46:47.672Z,96303.93
2018-11-28T03:49:17.984Z,96308.14
2018-11-28T03:51:48.314Z,96303.02
2018-11-28T03:54:18.611Z,96312.41
2018-11-28T03:56:49.074Z,96303.95
2018-11-28T03:59:19.393Z,96317.66
2018-11-28T04:01:49.801Z,96316.01
2018-11-28T04:04:20.259Z,96312.47
2018-11-28T04:06:50.663Z,96315.73
2018-11-28T04:09:20.974Z,96315.65
2018-11-28T04:11:51.371Z,96318.33
2018-11-28T04:14:21.686Z,96315.97
2018-11-28T04:16:51.984Z,96314.40
2018-11-28T04:19:22.412Z,96315.41
2018-11-28T04:21:52.808Z,96313.45
2018-11-28T04:24:23.214Z,96312.82
2018-11-28T04:26:53.623Z,96312.33
2018-11-28T04:29:23.935Z,96308.94
2018-11-28T04:31:54.749Z,96313.05
2018-11-28T04:34:25.083Z,96305.61
2018-11-28T04:36:55.526Z,96307.80
2018-11-28T04:39:25.898Z,96306.59
2018-11-28T04:41:56.194Z,96314.72
2018-11-28T04:44:26.642Z,96323.66
2018-11-28T04:46:57.038Z,96320.48
2018-11-28T04:49:27.514Z,96325.84
2018-11-28T04:51:57.950Z,96323.76
2018-11-28T04:54:28.439Z,96320.83
2018-11-28T04:56:58.752Z,96325.09
2018-11-28T04:59:29.068Z,96323.27
2018-11-28T05:01:59.463Z,96322.81
2018-11-28T05:04:29.813Z,96329.53
2018-11-28T05:07:28.658Z,96331.49
2018-11-28T05:09:59.572Z,96331.30
2018-11-28T05:12:30.127Z,96326.13
2018-11-28T05:15:00.617Z,96328.09
2018-11-28T05:17:31.050Z,96325.34
2018-11-28T05:20:01.468Z,96327.98
2018-11-28T05:22:31.948Z,96319.52
2018-11-28T05:25:02.356Z,96319.95
2018-11-28T05:27:32.866Z,96327.77
2018-11-28T05:30:03.417Z,96331.53
2018-11-28T05:32:33.806Z,96330.92
2018-11-28T05:35:04.353Z,96332.94
2018-11-28T05:37:34.684Z,96335.23
2018-11-28T05:40:06.874Z,96335.45
2018-11-28T05:42:37.300Z,96334.19
2018-11-28T05:45:09.690Z,96338.40
2018-11-28T05:47:40.092Z,96341.38
2018-11-28T05:50:11.802Z,96342.20
2018-11-28T05:52:42.195Z,96344.23
2018-11-28T05:55:16.192Z,96345.66
2018-11-28T05:57:46.821Z,96348.33
2018-11-28T06:00:40.591Z,96340.94
2018-11-28T06:03:11.925Z,96350.31
2018-11-28T06:05:43.365Z,96353.13
2018-11-28T06:08:13.785Z,96348.55
2018-11-28T06:10:44.136Z,96354.41
2018-11-28T06:13:14.534Z,96362.29
2018-11-28T06:15:44.873Z,96364.67
2018-11-28T06:18:15.172Z,96367.70
2018-11-28T06:20:45.612Z,96364.37
2018-11-28T06:23:16.118Z,96370.66
2018-11-28T06:25:46.583Z,96371.47
2018-11-28T06:28:16.895Z,96382.88
2018-11-28T06:30:47.242Z,96375.88
2018-11-28T06:33:17.637Z,96380.31
2018-11-28T06:35:48.097Z,96384.25
2018-11-28T06:38:18.517Z,96379.82
2018-11-28T06:40:49.039Z,96382.47
2018-11-28T06:43:19.449Z,96387.09
2018-11-28T06:45:49.954Z,96382.84
2018-11-28T06:48:20.350Z,96386.44
2018-11-28T06:50:50.745Z,96386.98
2018-11-28T06:53:21.160Z,96387.09
2018-11-28T06:55:52.670Z,96387.29
2018-11-28T06:58:23.069Z,96397.86
2018-11-28T07:00:53.585Z,96401.92
2018-11-28T07:03:23.983Z,96401.87
2018-11-28T07:05:54.342Z,96405.67
2018-11-28T07:08:24.746Z,96411.37
2018-11-28T07:10:55.193Z,96412.60
2018-11-28T07:13:25.580Z,96422.09
2018-11-28T07:15:55.958Z,96415.30
2018-11-28T07:19:01.536Z,96413.63
2018-11-28T07:21:32.067Z,96420.15
2018-11-28T07:24:02.615Z,96417.06
2018-11-28T07:26:32.973Z,96419.23
2018-11-28T07:29:03.494Z,96422.33
2018-11-28T07:31:33.889Z,96430.14
2018-11-28T07:34:04.343Z,96424.18
2018-11-28T07:36:34.755Z,96425.42
2018-11-28T07:39:06.098Z,96422.10
2018-11-28T07:41:36.538Z,96426.55
2018-11-28T07:44:07.059Z,96430.72
2018-11-28T07:46:37.447Z,96422.98
2018-11-28T07:49:08.016Z,96424.19
2018-11-28T07:51:38.364Z,96431.73
2018-11-28T07:54:08.768Z,96429.78
2018-11-28T07:56:39.122Z,96434.05
2018-11-28T07:59:15.024Z,96433.41
2018-11-28T08:01:45.899Z,96434.87
2018-11-28T08:04:16.346Z,96438.17
2018-11-28T08:06:46.742Z,96441.69
2018-11-28T08:09:17.060Z,96446.35
2018-11-28T08:11:47.364Z,96446.12
2018-11-28T08:14:17.751Z,96453.89
2018-11-28T08:16:48.193Z,96458.02
2018-11-28T08:19:23.897Z,96457.59
2018-11-28T08:21:49.820Z,96458.20
2018-11-28T08:24:20.096Z,96458.34
2018-11-28T08:26:51.442Z,96460.92
2018-11-28T08:29:21.812Z,96463.29
2018-11-28T08:31:52.282Z,96461.31
2018-11-28T08:34:23.597Z,96457.28
2018-11-28T08:36:53.948Z,96460.38
2018-11-28T08:39:24.246Z,96461.44
2018-11-28T08:41:54.633Z,96455.23
2018-11-28T08:44:24.957Z,96446.67
2018-11-28T08:46:55.343Z,96449.86
2018-11-28T08:49:25.705Z,96453.16
2018-11-28T08:51:56.103Z,96456.79
2018-11-28T08:54:26.501Z,96458.42
2018-11-28T08:56:56.837Z,96459.98
2018-11-28T08:59:27.257Z,96463.30
2018-11-28T09:01:57.575Z,96463.69
2018-11-28T09:04:27.957Z,96472.59
2018-11-28T09:06:58.415Z,96469.70
2018-11-28T09:09:28.712Z,96472.59
2018-11-28T09:11:59.178Z,96465.35
2018-11-28T09:14:29.475Z,96459.89
2018-11-28T09:16:59.881Z,96470.13
2018-11-28T09:19:30.205Z,96468.34
2018-11-28T09:22:00.623Z,96469.50
2018-11-28T09:24:31.119Z,96476.50
2018-11-28T09:27:01.464Z,96478.91
2018-11-28T09:29:31.873Z,96478.47
2018-11-28T09:32:02.233Z,96486.31
2018-11-28T09:34:32.542Z,96483.86
2018-11-28T09:37:02.966Z,96490.98
2018-11-28T09:39:33.484Z,96478.55
2018-11-28T09:42:03.966Z,96481.98
2018-11-28T09:44:34.304Z,96481.16
2018-11-28T09:47:04.674Z,96484.23
2018-11-28T09:49:35.098Z,96491.58
2018-11-28T09:52:05.794Z,96487.03
2018-11-28T09:54:36.189Z,96494.03
2018-11-28T09:57:07.007Z,96483.80
2018-11-28T09:59:37.513Z,96476.44
2018-11-28T10:02:08.003Z,96488.25
2018-11-28T10:04:38.355Z,96479.67
2018-11-28T10:07:08.930Z,96484.09
2018-11-28T10:09:39.459Z,96484.09
2018-11-28T10:12:09.780Z,96482.64
2018-11-28T10:14:40.122Z,96478.17
2018-11-28T10:17:10.400Z,96480.64
2018-11-28T10:19:40.790Z,96484.88
2018-11-28T10:22:11.181Z,96475.59
2018-11-28T10:24:41.565Z,96471.34
2018-11-28T10:27:12.085Z,96473.12
2018-11-28T10:29:42.509Z,96467.05
2018-11-28T10:32:12.983Z,96475.75
2018-11-28T10:34:43.397Z,96473.06
2018-11-28T10:37:13.846Z,96470.34
2018-11-28T10:39:44.520Z,96469.23
2018-11-28T10:42:15.085Z,96468.25
2018-11-28T10:44:45.500Z,96464.36
2018-11-28T10:47:15.903Z,96461.09
2018-11-28T10:49:46.303Z,96467.98
2018-11-28T10:52:16.781Z,96464.94
2018-11-28T10:54:47.075Z,96460.98
2018-11-28T10:57:17.563Z,96454.68
2018-11-28T10:59:48.012Z,96462.05
2018-11-28T11:02:35.520Z,96459.31
2018-11-28T11:05:24.071Z,96462.60
2018-11-28T11:08:11.680Z,96455.40
2018-11-28T11:10:59.216Z,96464.50
2018-11-28T11:14:01.301Z,96465.73
2018-11-28T11:16:32.368Z,96459.86
2018-11-28T11:19:03.025Z,96456.98
2018-11-28T11:21:33.899Z,96458.21
2018-11-28T11:24:05.037Z,96464.66
2018-11-28T11:26:35.747Z,96469.22
2018-11-28T11:29:06.625Z,96461.45
2018-11-28T11:31:37.248Z,96467.87
2018-11-28T11:34:08.118Z,96453.03
2018-11-28T11:36:38.636Z,96451.92
2018-11-28T11:39:09.560Z,96456.63
2018-11-28T11:41:40.121Z,96452.52
2018-11-28T11:44:10.733Z,96449.85
2018-11-28T11:46:41.374Z,96445.39
2018-11-28T11:49:12.033Z,96443.25
2018-11-28T11:51:42.532Z,96446.64
2018-11-28T11:54:13.106Z,96446.96
2018-11-28T11:56:43.686Z,96441.27
2018-11-28T11:59:14.106Z,96443.37
2018-11-28T12:01:44.622Z,96450.22
2018-11-28T12:04:15.030Z,96449.46
2018-11-28T12:06:45.451Z,96447.84
2018-11-28T12:09:15.892Z,96449.27
2018-11-28T12:11:46.417Z,96446.97
2018-11-28T12:14:16.924Z,96443.88
2018-11-28T12:16:47.330Z,96438.22
2018-11-28T12:19:17.756Z,96436.25
2018-11-28T12:21:48.276Z,96432.17
2018-11-28T12:24:18.789Z,96427.58
2018-11-28T12:26:49.199Z,96433.39
2018-11-28T12:29:19.715Z,96435.69
2018-11-28T12:31:50.206Z,96435.58
2018-11-28T12:34:20.751Z,96445.31
2018-11-28T12:36:51.302Z,96442.94
2018-11-28T12:41:52.364Z,96432.33
2018-11-28T12:44:22.872Z,96425.83
2018-11-28T12:46:53.296Z,96425.05
2018-11-28T12:49:23.729Z,96426.39
2018-11-28T12:51:54.249Z,96426.31
2018-11-28T12:54:24.823Z,96422.31
2018-11-28T12:56:55.397Z,96423.11
2018-11-28T12:59:25.841Z,96422.80
2018-11-28T13:01:56.440Z,96420.58
2018-11-28T13:04:26.906Z,96418.00
2018-11-28T13:06:57.400Z,96416.50
2018-11-28T13:09:28.159Z,96417.96
2018-11-28T13:12:00.082Z,96418.09
2018-11-28T13:14:29.958Z,96415.59
2018-11-28T13:17:00.385Z,96406.38
2018-11-28T13:19:30.875Z,96402.57
2018-11-28T13:22:01.261Z,96413.22
2018-11-28T13:24:31.878Z,96409.90
2018-11-28T13:27:02.179Z,96414.32
2018-11-28T13:29:32.568Z,96416.66
2018-11-28T13:32:03.063Z,96415.55
2018-11-28T13:34:33.589Z,96417.30
2018-11-28T13:37:04.200Z,96416.34
2018-11-28T13:39:34.621Z,96416.50
2018-11-28T13:42:05.020Z,96413.42
2018-11-28T13:44:35.419Z,96419.03
2018-11-28T13:47:06.177Z,96418.63
2018-11-28T13:49:36.676Z,96428.42
2018-11-28T13:52:07.158Z,96421.88
2018-11-28T13:55:36.621Z,96424.96
2018-11-28T13:57:10.098Z,96428.21
2018-11-28T13:59:40.060Z,96431.66
2018-11-28T14:02:10.643Z,96435.41
2018-11-28T14:04:40.967Z,96437.98
2018-11-28T14:07:11.265Z,96442.36
2018-11-28T14:09:41.632Z,96444.98
2018-11-28T14:12:11.925Z,96443.93
2018-11-28T14:14:42.405Z,96441.67
2018-11-28T14:17:12.907Z,96447.85
2018-11-28T14:19:43.243Z,96447.25
2018-11-28T14:22:13.726Z,96443.10
2018-11-28T14:24:44.104Z,96445.16
2018-11-28T14:27:14.530Z,96447.67
2018-11-28T14:29:45.002Z,96448.86
2018-11-28T14:32:15.511Z,96451.94
2018-11-28T14:34:46.006Z,96449.51
2018-11-28T14:37:16.500Z,96450.16
2018-11-28T14:39:46.801Z,96453.70
2018-11-28T14:42:17.285Z,96451.64
2018-11-28T14:44:47.643Z,96453.48
2018-11-28T14:47:18.069Z,96451.82
2018-11-28T14:49:48.451Z,96448.73
2018-11-28T14:52:18.754Z,96448.44
2018-11-28T14:54:49.149Z,96445.95
2018-11-28T14:57:19.549Z,96449.29
2018-11-28T14:59:49.821Z,96452.08
2018-11-28T15:02:20.458Z,96451.68
2018-11-28T15:04:50.828Z,96455.59
2018-11-28T15:07:21.695Z,96454.97
2018-11-28T15:10:02.149Z,96456.33
2018-11-28T15:12:32.756Z,96448.08
2018-11-28T15:15:03.174Z,96450.64
2018-11-28T15:17:33.824Z,96451.45
2018-11-28T15:20:04.347Z,96446.39
2018-11-28T15:22:34.897Z,96445.97
2018-11-28T15:25:07.490Z,96447.95
2018-11-28T15:27:38.002Z,96446.11
2018-11-28T15:30:09.716Z,96448.59
2018-11-28T15:32:40.087Z,96457.69
2018-11-28T15:35:10.505Z,96458.20
2018-11-28T15:37:40.819Z,96452.33
2018-11-28T15:40:11.414Z,96455.41
2018-11-28T15:42:41.896Z,96450.58
2018-11-28T15:45:12.400Z,96450.77
2018-11-28T15:47:42.942Z,96448.50
2018-11-28T15:50:13.444Z,96452.92
2018-11-28T15:52:43.880Z,96457.36
2018-11-28T15:55:14.816Z,96460.89
2018-11-28T15:57:45.231Z,96469.37
2018-11-28T16:00:23.204Z,96472.87
2018-11-28T16:02:54.114Z,96468.05
2018-11-28T16:05:24.591Z,96473.00
2018-11-28T16:07:54.930Z,96471.36
2018-11-28T16:10:55.863Z,96478.67
2018-11-28T16:13:26.427Z,96477.84
2018-11-28T16:15:58.051Z,96485.39
2018-11-28T16:18:28.370Z,96482.39
2018-11-28T16:20:58.798Z,96482.28
2018-11-28T16:23:29.368Z,96481.98
2018-11-28T16:25:59.830Z,96479.72
2018-11-28T16:28:30.264Z,96486.31
2018-11-28T16:31:00.647Z,96489.21
2018-11-28T16:33:30.947Z,96482.49
2018-11-28T16:36:01.425Z,96476.62
2018-11-28T16:38:31.822Z,96481.78
2018-11-28T16:41:02.126Z,96487.56
2018-11-28T16:43:32.659Z,96477.95
2018-11-28T16:46:03.123Z,96481.47
2018-11-28T16:48:33.609Z,96484.28
2018-11-28T16:51:04.015Z,96485.41
2018-11-28T16:53:34.422Z,96482.81
2018-11-28T16:56:04.935Z,96485.08
2018-11-28T16:58:35.326Z,96490.16
2018-11-28T17:01:06.051Z,96487.88
2018-11-28T17:03:36.363Z,96486.74
2018-11-28T17:06:06.921Z,96484.89
2018-11-28T17:08:37.306Z,96489.01
2018-11-28T17:11:07.972Z,96487.26
2018-11-28T17:13:38.285Z,96493.05
2018-11-28T17:16:08.766Z,96486.83
2018-11-28T17:18:39.110Z,96486.53
2018-11-28T17:21:09.619Z,96482.94
2018-11-28T17:23:39.990Z,96488.30
2018-11-28T17:26:10.442Z,96489.95
2018-11-28T17:28:40.829Z,96488.92
2018-11-28T17:31:11.291Z,96499.55
2018-11-28T17:33:41.563Z,96496.88
2018-11-28T17:36:12.722Z,96503.78
2018-11-28T17:38:43.151Z,96502.67
2018-11-28T17:41:13.551Z,96504.93
2018-11-28T17:43:43.963Z,96507.50
2018-11-28T17:46:14.443Z,96500.91
2018-11-28T17:48:44.848Z,96500.08
2018-11-28T17:51:15.338Z,96495.13
2018-11-28T17:53:45.728Z,96491.28
2018-11-28T17:56:16.252Z,96494.50
2018-11-28T17:58:46.622Z,96496.55
2018-11-28T18:01:16.952Z,96499.03
2018-11-28T18:03:47.322Z,96497.81
2018-11-28T18:06:17.643Z,96500.50
2018-11-28T18:08:47.951Z,96499.77
2018-11-28T18:11:18.399Z,96496.15
2018-11-28T18:13:48.793Z,96488.09
2018-11-28T18:16:19.185Z,96486.20
2018-11-28T18:18:49.643Z,96488.00
2018-11-28T18:21:20.059Z,96484.47
2018-11-28T18:23:50.435Z,96483.66
2018-11-28T18:26:20.822Z,96483.65
2018-11-28T18:28:51.297Z,96482.08
2018-11-28T18:31:21.995Z,96485.50
2018-11-28T18:33:52.493Z,96496.05
2018-11-28T18:36:22.962Z,96496.15
2018-11-28T18:38:53.390Z,96493.88
2018-11-28T18:41:23.784Z,96485.41
2018-11-28T18:43:54.289Z,96496.86
2018-11-28T18:46:24.773Z,96488.09
2018-11-28T18:48:55.186Z,96486.33
2018-11-28T18:51:25.619Z,96493.37
2018-11-28T18:53:55.989Z,96482.81
2018-11-28T18:56:26.428Z,96491.58
2018-11-28T18:58:56.737Z,96487.45
2018-11-28T19:01:27.080Z,96484.77
2018-11-28T19:03:57.358Z,96490.56
2018-11-28T19:06:27.753Z,96486.02
2018-11-28T19:08:58.154Z,96480.33
2018-11-28T19:11:28.666Z,96479.17
2018-11-28T19:13:59.237Z,96484.45
2018-11-28T19:16:29.561Z,96491.89
2018-11-28T19:18:59.963Z,96504.40
2018-11-28T19:21:30.365Z,96499.34
2018-11-28T19:24:00.670Z,96492.19
2018-11-28T19:26:30.999Z,96489.72
2018-11-28T19:29:01.292Z,96493.23
2018-11-28T19:31:31.591Z,96493.44
2018-11-28T19:34:02.066Z,96492.73
2018-11-28T19:36:32.427Z,96483.84
2018-11-28T19:39:03.348Z,96488.89
2018-11-28T19:41:33.674Z,96486.40
2018-11-28T19:44:04.061Z,96491.48
2018-11-28T19:46:34.521Z,96499.53
2018-11-28T19:49:04.933Z,96491.58
2018-11-28T19:51:35.363Z,96490.84
2018-11-28T19:54:05.957Z,96492.91
2018-11-28T19:56:36.415Z,96484.12
2018-11-28T19:59:07.138Z,96480.00
2018-11-28T20:01:37.517Z,96485.37
2018-11-28T20:04:08.051Z,96475.05
2018-11-28T20:06:38.518Z,96472.73
2018-11-28T20:09:22.064Z,96480.42
2018-11-28T20:11:52.478Z,96482.67
2018-11-28T20:14:22.984Z,96482.69
2018-11-28T20:16:53.377Z,96472.14
2018-11-28T20:19:23.677Z,96469.13
2018-11-28T20:21:53.987Z,96472.55
2018-11-28T20:24:24.300Z,96473.80
2018-11-28T20:26:54.659Z,96470.47
2018-11-28T20:29:25.095Z,96471.53
2018-11-28T20:31:55.625Z,96471.22
2018-11-28T20:34:26.049Z,96478.23
2018-11-28T20:36:56.448Z,96474.95
2018-11-28T20:39:26.779Z,96472.78
2018-11-28T20:41:57.087Z,96469.27
2018-11-28T20:44:27.510Z,96473.52
2018-11-28T20:46:57.914Z,96471.34
2018-11-28T20:49:28.258Z,96468.44
2018-11-28T20:51:58.671Z,96467.31
2018-11-28T20:54:29.033Z,96463.58
2018-11-28T20:56:59.503Z,96461.20
2018-11-28T20:59:29.891Z,96466.36
2018-11-28T21:02:00.284Z,96467.09
2018-11-28T21:04:30.661Z,96468.52
2018-11-28T21:07:01.144Z,96478.23
2018-11-28T21:09:32.413Z,96482.91
2018-11-28T21:12:02.912Z,96489.12
2018-11-28T21:14:33.304Z,96482.91
2018-11-28T21:17:03.618Z,96480.61
2018-11-28T21:19:34.126Z,96480.42
2018-11-28T21:22:04.510Z,96492.91
2018-11-28T21:24:34.835Z,96490.61
2018-11-28T21:27:05.357Z,96493.28
2018-11-28T21:29:35.736Z,96491.02
2018-11-28T21:32:06.212Z,96487.13
2018-11-28T21:34:36.596Z,96475.64
2018-11-28T21:37:07.117Z,96486.53
2018-11-28T21:39:37.565Z,96489.40
2018-11-28T21:42:08.065Z,96499.12
2018-11-28T21:44:38.355Z,96498.80
2018-11-28T21:47:08.758Z,96502.83
2018-11-28T21:49:39.045Z,96512.03
2018-11-28T21:52:09.353Z,96513.61
2018-11-28T21:54:39.740Z,96514.34
2018-11-28T21:57:10.355Z,96505.33
2018-11-28T21:59:40.768Z,96499.86
2018-11-28T22:02:11.166Z,96507.88
2018-11-28T22:04:41.542Z,96505.42
2018-11-28T22:07:11.852Z,96507.27
2018-11-28T22:09:42.243Z,96491.77
2018-11-28T22:12:12.649Z,96482.78
2018-11-28T22:14:42.977Z,96484.22
2018-11-28T22:17:13.539Z,96490.05
2018-11-28T22:19:43.895Z,96479.69
2018-11-28T22:22:14.196Z,96482.69
2018-11-28T22:24:47.663Z,96483.52
2018-11-28T22:27:17.967Z,96473.98
2018-11-28T22:29:48.478Z,96472.36
2018-11-28T22:32:18.887Z,96473.80
2018-11-28T22:34:49.189Z,96488.37
2018-11-28T22:37:19.529Z,96484.44
2018-11-28T22:39:49.811Z,96480.23
2018-11-28T22:42:20.210Z,96471.86
2018-11-28T22:44:50.705Z,96480.32
2018-11-28T22:47:21.153Z,96479.91
2018-11-28T22:49:51.489Z,96488.48
2018-11-28T22:52:21.885Z,96488.47
2018-11-28T22:54:52.309Z,96496.94
2018-11-28T22:57:22.601Z,96495.97
2018-11-28T22:59:52.924Z,96492.69
2018-11-28T23:02:50.114Z,96485.36
2018-11-28T23:05:20.856Z,96483.80
2018-11-28T23:07:51.316Z,96496.21
2018-11-28T23:10:21.842Z,96485.38
2018-11-28T23:12:52.385Z,96484.03
2018-11-28T23:15:22.875Z,96488.66
2018-11-28T23:17:55.283Z,96488.14
2018-11-28T23:20:24.638Z,96478.66
2018-11-28T23:22:55.023Z,96483.09
2018-11-28T23:25:25.521Z,96477.83
2018-11-28T23:27:56.383Z,96467.19
2018-11-28T23:30:26.683Z,96460.70
2018-11-28T23:32:57.255Z,96453.44
2018-11-28T23:35:27.646Z,96451.91
2018-11-28T23:37:57.949Z,96453.03
2018-11-28T23:40:28.606Z,96451.50
2018-11-28T23:42:59.046Z,96455.62
2018-11-28T23:45:30.302Z,96435.52
2018-11-28T23:48:00.738Z,96434.78
2018-11-28T23:50:31.201Z,96426.70
2018-11-28T23:53:01.625Z,96419.98
2018-11-28T23:55:32.683Z,96413.31
2018-11-28T23:58:03.188Z,96416.09
